createdAt,value
2023-03-06T00:01:03.030Z,9.25
2023-03-06T00:03:34.419Z,9.15
2023-03-06T00:06:04.540Z,9.13
2023-03-06T00:08:34.418Z,9.06
2023-03-06T00:11:03.809Z,8.99
2023-03-06T00:13:34.915Z,8.91
2023-03-06T00:16:04.093Z,8.86
2023-03-06T00:18:34.152Z,8.89
2023-03-06T00:21:08.164Z,8.95
2023-03-06T00:23:38.363Z,9.01
2023-03-06T00:26:09.155Z,9.08
2023-03-06T00:28:38.341Z,9.05
2023-03-06T00:31:07.319Z,9.00
2023-03-06T00:33:36.486Z,9.05
2023-03-06T00:36:06.791Z,9.10
2023-03-06T00:38:37.969Z,9.16
2023-03-06T00:41:12.256Z,9.17
2023-03-06T00:43:41.362Z,9.05
2023-03-06T00:46:10.654Z,9.10
2023-03-06T00:48:39.757Z,9.23
2023-03-06T00:51:09.815Z,9.28
2023-03-06T00:53:40.372Z,9.25
2023-03-06T00:56:10.271Z,9.26
2023-03-06T00:58:40.298Z,9.27
2023-03-06T01:01:09.602Z,9.33
2023-03-06T01:03:39.245Z,9.38
2023-03-06T01:06:08.719Z,9.34
2023-03-06T01:08:38.189Z,9.26
2023-03-06T01:11:07.450Z,9.17
2023-03-06T01:13:36.967Z,9.14
2023-03-06T01:16:17.207Z,9.02
2023-03-06T01:18:47.043Z,8.76
2023-03-06T01:21:16.873Z,8.64
2023-03-06T01:23:45.799Z,8.52
2023-03-06T01:26:15.638Z,8.45
2023-03-06T01:28:44.866Z,8.42
2023-03-06T01:31:15.903Z,8.35
2023-03-06T01:33:45.754Z,8.27
2023-03-06T01:36:15.017Z,8.16
2023-03-06T01:38:44.467Z,8.12
2023-03-06T01:41:16.091Z,8.11
2023-03-06T01:43:47.838Z,8.07
2023-03-06T01:46:29.271Z,8.00
2023-03-06T01:48:58.198Z,7.90
2023-03-06T01:51:33.065Z,7.88
2023-03-06T01:54:09.376Z,7.81
2023-03-06T01:56:40.611Z,7.78
2023-03-06T01:59:09.804Z,7.78
2023-03-06T02:01:41.100Z,7.82
2023-03-06T02:04:11.765Z,7.90
2023-03-06T02:06:45.735Z,7.94
2023-03-06T02:09:15.316Z,7.92
2023-03-06T02:11:46.977Z,7.82
2023-03-06T02:14:17.896Z,7.71
2023-03-06T02:16:47.057Z,7.75
2023-03-06T02:19:28.043Z,7.81
2023-03-06T02:21:57.451Z,7.86
2023-03-06T02:24:43.242Z,7.90
2023-03-06T02:27:15.014Z,7.80
2023-03-06T02:29:44.837Z,7.72
2023-03-06T02:32:14.254Z,7.65
2023-03-06T02:34:43.399Z,7.65
2023-03-06T02:37:13.008Z,7.59
2023-03-06T02:39:47.952Z,7.55
2023-03-06T02:42:26.545Z,7.63
2023-03-06T02:44:57.903Z,7.76
2023-03-06T02:47:26.907Z,7.85
2023-03-06T02:49:55.910Z,7.81
2023-03-06T02:52:25.068Z,7.72
2023-03-06T02:54:54.317Z,7.76
2023-03-06T02:57:23.660Z,7.71
2023-03-06T02:59:53.155Z,7.60
2023-03-06T03:02:22.172Z,7.55
2023-03-06T03:04:51.265Z,7.63
2023-03-06T03:07:20.172Z,7.81
2023-03-06T03:09:49.315Z,7.99
2023-03-06T03:12:18.403Z,8.11
2023-03-06T03:14:47.478Z,8.18
2023-03-06T03:17:16.866Z,8.22
2023-03-06T03:19:45.895Z,8.27
2023-03-06T03:22:15.234Z,8.30
2023-03-06T03:24:44.619Z,8.27
2023-03-06T03:27:14.940Z,8.07
2023-03-06T03:29:44.689Z,7.96
2023-03-06T03:32:13.950Z,7.92
2023-03-06T03:34:43.217Z,7.86
2023-03-06T03:37:12.319Z,7.79
2023-03-06T03:39:41.800Z,7.75
2023-03-06T03:42:11.322Z,7.72
2023-03-06T03:44:40.662Z,7.75
2023-03-06T03:47:09.576Z,7.68
2023-03-06T03:49:40.311Z,7.68
2023-03-06T03:52:09.355Z,7.64
2023-03-06T03:54:38.230Z,7.65
2023-03-06T03:57:07.529Z,7.66
2023-03-06T03:59:36.357Z,7.71
2023-03-06T04:02:05.466Z,7.78
2023-03-06T04:04:34.846Z,7.81
2023-03-06T04:07:04.754Z,7.80
2023-03-06T04:09:33.769Z,7.78
2023-03-06T04:12:02.939Z,7.76
2023-03-06T04:14:32.046Z,7.70
2023-03-06T04:17:00.868Z,7.61
2023-03-06T04:19:29.636Z,7.65
2023-03-06T04:21:59.139Z,7.72
2023-03-06T04:24:27.966Z,7.73
2023-03-06T04:26:56.750Z,7.74
2023-03-06T04:29:25.618Z,7.71
2023-03-06T04:31:54.373Z,7.76
2023-03-06T04:34:23.209Z,7.81
2023-03-06T04:36:52.400Z,7.82
2023-03-06T04:39:21.957Z,7.83
2023-03-06T04:41:51.146Z,7.83
2023-03-06T04:44:20.081Z,7.85
2023-03-06T04:46:49.347Z,7.86
2023-03-06T04:49:18.509Z,7.85
2023-03-06T04:51:47.615Z,7.84
2023-03-06T04:54:18.889Z,7.83
2023-03-06T04:56:48.258Z,7.87
2023-03-06T04:59:17.456Z,7.89
2023-03-06T05:01:46.644Z,7.91
2023-03-06T05:04:15.786Z,7.93
2023-03-06T05:06:44.784Z,7.98
2023-03-06T05:09:13.787Z,8.05
2023-03-06T05:11:42.883Z,8.13
2023-03-06T05:14:11.899Z,8.19
2023-03-06T05:16:40.983Z,8.26
2023-03-06T05:19:10.144Z,8.33
2023-03-06T05:21:39.135Z,8.47
2023-03-06T05:24:08.224Z,8.57
2023-03-06T05:26:37.647Z,8.57
2023-03-06T05:29:07.362Z,8.61
2023-03-06T05:31:36.659Z,8.67
2023-03-06T05:34:06.419Z,8.75
2023-03-06T05:36:35.282Z,8.82
2023-03-06T05:39:04.528Z,8.84
2023-03-06T05:41:35.146Z,8.83
2023-03-06T05:44:04.147Z,8.77
2023-03-06T05:46:33.491Z,8.83
2023-03-06T05:49:02.740Z,8.92
2023-03-06T05:51:31.916Z,8.91
2023-03-06T05:54:01.364Z,8.91
2023-03-06T05:56:30.795Z,8.94
2023-03-06T05:59:00.154Z,8.94
2023-03-06T06:01:30.376Z,8.89
2023-03-06T06:03:59.474Z,8.82
2023-03-06T06:06:29.181Z,8.77
2023-03-06T06:08:58.597Z,8.74
2023-03-06T06:11:27.782Z,8.72
2023-03-06T06:13:57.127Z,8.73
2023-03-06T06:16:26.362Z,8.78
2023-03-06T06:18:55.587Z,8.94
2023-03-06T06:21:24.771Z,9.13
2023-03-06T06:23:54.098Z,9.30
2023-03-06T06:26:23.274Z,9.43
2023-03-06T06:28:52.782Z,9.58
2023-03-06T06:31:21.694Z,9.72
2023-03-06T06:33:50.839Z,9.85
2023-03-06T06:36:22.210Z,9.95
2023-03-06T06:38:51.397Z,10.03
2023-03-06T06:41:42.742Z,10.10
2023-03-06T06:44:14.900Z,10.16
2023-03-06T06:49:35.201Z,10.23
2023-03-06T06:52:06.798Z,10.24
2023-03-06T06:54:35.797Z,10.31
2023-03-06T06:57:04.899Z,10.65
2023-03-06T06:59:34.225Z,11.01
2023-03-06T07:02:03.354Z,11.28
2023-03-06T07:04:32.992Z,11.73
2023-03-06T07:07:02.908Z,12.65
2023-03-06T07:09:32.148Z,13.44
2023-03-06T07:12:01.549Z,13.61
2023-03-06T07:14:30.768Z,13.70
2023-03-06T07:16:59.985Z,14.07
2023-03-06T07:19:29.281Z,14.75
2023-03-06T07:21:58.806Z,15.23
2023-03-06T07:24:28.875Z,15.97
2023-03-06T07:26:58.362Z,16.75
2023-03-06T07:29:27.440Z,17.76
2023-03-06T07:31:56.746Z,18.78
2023-03-06T07:34:25.898Z,19.66
2023-03-06T07:36:54.854Z,20.59
2023-03-06T07:39:27.331Z,21.41
2023-03-06T07:41:59.123Z,22.14
2023-03-06T07:44:28.985Z,22.63
2023-03-06T07:46:57.965Z,23.04
2023-03-06T07:49:27.372Z,23.64
2023-03-06T07:51:57.100Z,23.91
2023-03-06T07:54:26.422Z,24.22
2023-03-06T07:56:55.750Z,24.30
2023-03-06T07:59:26.329Z,24.62
2023-03-06T08:01:56.946Z,25.20
2023-03-06T08:04:26.724Z,25.76
2023-03-06T08:07:00.050Z,26.31
2023-03-06T08:09:30.606Z,26.11
2023-03-06T08:11:59.954Z,26.05
2023-03-06T08:14:29.576Z,26.45
2023-03-06T08:16:58.779Z,25.53
2023-03-06T08:19:28.462Z,25.05
2023-03-06T08:21:58.763Z,25.60
2023-03-06T08:24:27.964Z,26.37
2023-03-06T08:26:57.190Z,27.33
2023-03-06T08:29:26.934Z,28.24
2023-03-06T08:31:56.409Z,28.81
2023-03-06T08:34:26.475Z,29.20
2023-03-06T08:36:55.835Z,29.34
2023-03-06T08:39:25.158Z,29.69
2023-03-06T08:41:54.393Z,30.27
2023-03-06T08:44:23.464Z,30.93
2023-03-06T08:46:52.925Z,31.43
2023-03-06T08:49:22.891Z,31.74
2023-03-06T08:51:52.794Z,31.94
2023-03-06T08:54:22.599Z,31.86
2023-03-06T08:56:53.064Z,32.28
2023-03-06T08:59:22.943Z,32.52
2023-03-06T09:01:52.598Z,32.75
2023-03-06T09:04:22.136Z,32.88
2023-03-06T09:06:53.112Z,32.84
2023-03-06T09:09:23.727Z,32.91
2023-03-06T09:11:54.185Z,32.97
2023-03-06T09:14:24.269Z,33.43
2023-03-06T09:16:54.263Z,33.56
2023-03-06T09:19:23.880Z,33.15
2023-03-06T09:21:54.693Z,32.90
2023-03-06T09:24:24.238Z,33.07
2023-03-06T09:26:54.187Z,33.24
2023-03-06T09:29:23.914Z,33.05
2023-03-06T09:31:53.489Z,33.09
2023-03-06T09:34:23.280Z,33.14
2023-03-06T09:36:57.303Z,33.50
2023-03-06T09:39:27.946Z,33.44
2023-03-06T09:41:59.212Z,33.43
2023-03-06T09:44:32.272Z,33.88
2023-03-06T09:47:32.199Z,33.98
2023-03-06T09:50:24.860Z,33.93
2023-03-06T09:53:00.578Z,33.84
2023-03-06T09:55:37.275Z,34.03
2023-03-06T09:58:24.408Z,34.18
2023-03-06T10:01:14.517Z,33.94
2023-03-06T10:04:10.543Z,34.00
2023-03-06T10:06:48.952Z,34.18
2023-03-06T10:09:25.648Z,33.55
2023-03-06T10:12:07.709Z,31.28
2023-03-06T10:14:55.100Z,31.70
2023-03-06T10:17:26.746Z,32.39
2023-03-06T10:19:56.460Z,32.90
2023-03-06T10:22:43.708Z,31.73
2023-03-06T10:25:28.517Z,30.16
2023-03-06T10:28:18.897Z,30.64
2023-03-06T10:30:55.112Z,30.85
2023-03-06T10:33:46.774Z,31.85
2023-03-06T10:36:18.914Z,33.01
2023-03-06T10:38:50.106Z,33.59
2023-03-06T10:41:25.478Z,33.97
2023-03-06T10:44:00.747Z,34.21
2023-03-06T10:46:45.407Z,34.35
2023-03-06T10:49:37.391Z,34.27
2023-03-06T10:52:16.596Z,34.10
2023-03-06T10:54:48.755Z,34.33
2023-03-06T10:57:32.708Z,34.51
2023-03-06T11:00:24.873Z,34.79
2023-03-06T11:03:23.289Z,34.88
2023-03-06T11:06:05.573Z,34.72
2023-03-06T11:08:36.034Z,34.80
2023-03-06T11:11:13.512Z,34.97
2023-03-06T11:13:44.477Z,35.21
2023-03-06T11:16:27.289Z,35.15
2023-03-06T11:19:06.255Z,35.03
2023-03-06T11:21:40.600Z,34.91
2023-03-06T11:24:18.707Z,34.98
2023-03-06T11:26:57.050Z,35.02
2023-03-06T11:29:43.693Z,34.40
2023-03-06T11:32:13.738Z,33.87
2023-03-06T11:34:58.203Z,34.47
2023-03-06T11:37:45.890Z,34.91
2023-03-06T11:40:31.583Z,34.81
2023-03-06T11:43:31.222Z,34.96
2023-03-06T11:46:18.537Z,35.28
2023-03-06T11:48:59.041Z,35.27
2023-03-06T11:51:34.489Z,32.90
2023-03-06T11:54:07.260Z,30.48
2023-03-06T11:56:54.463Z,29.44
2023-03-06T11:59:36.916Z,28.81
2023-03-06T12:02:53.821Z,30.24
2023-03-06T12:06:05.491Z,28.59
2023-03-06T12:08:46.386Z,26.96
2023-03-06T12:11:25.516Z,26.45
2023-03-06T12:14:04.265Z,25.09
2023-03-06T12:16:48.781Z,23.71
2023-03-06T12:19:52.902Z,22.61
2023-03-06T12:23:14.856Z,21.33
2023-03-06T12:25:57.335Z,20.04
2023-03-06T12:28:47.585Z,19.48
2023-03-06T12:31:34.947Z,18.63
2023-03-06T12:34:16.542Z,18.10
2023-03-06T12:36:55.508Z,17.63
2023-03-06T12:39:36.603Z,17.23
2023-03-06T12:42:38.143Z,16.91
2023-03-06T12:45:37.627Z,16.44
2023-03-06T12:48:17.494Z,16.09
2023-03-06T12:50:48.548Z,15.95
2023-03-06T12:53:35.634Z,15.71
2023-03-06T12:56:06.679Z,15.53
2023-03-06T12:58:48.381Z,15.46
2023-03-06T13:01:38.023Z,15.34
2023-03-06T13:04:26.128Z,15.12
2023-03-06T13:07:19.907Z,14.92
2023-03-06T13:10:22.815Z,14.57
2023-03-06T13:13:05.739Z,14.35
2023-03-06T13:15:44.601Z,14.23
2023-03-06T13:18:23.033Z,14.19
2023-03-06T13:20:56.916Z,14.22
2023-03-06T13:23:36.057Z,14.19
2023-03-06T13:26:06.729Z,14.05
2023-03-06T13:28:58.682Z,13.91
2023-03-06T13:31:49.854Z,13.68
2023-03-06T13:34:40.261Z,13.55
2023-03-06T13:37:18.919Z,13.50
2023-03-06T13:39:54.109Z,13.52
2023-03-06T13:42:33.451Z,13.54
2023-03-06T13:45:24.046Z,13.48
2023-03-06T13:50:49.112Z,13.31
2023-03-06T13:53:41.291Z,13.35
2023-03-06T13:56:26.017Z,13.32
2023-03-06T13:59:09.779Z,13.33
2023-03-06T14:01:41.751Z,13.24
2023-03-06T14:04:39.344Z,13.13
2023-03-06T14:07:08.920Z,12.98
2023-03-06T14:09:44.112Z,12.84
2023-03-06T14:12:25.476Z,12.80
2023-03-06T14:15:12.814Z,12.90
2023-03-06T14:17:59.789Z,12.91
2023-03-06T14:20:45.596Z,12.89
2023-03-06T14:23:16.058Z,12.91
2023-03-06T14:25:49.306Z,13.12
2023-03-06T14:28:27.984Z,13.27
2023-03-06T14:30:59.931Z,13.34
2023-03-06T14:33:39.708Z,13.46
2023-03-06T14:36:16.043Z,13.62
2023-03-06T14:38:52.448Z,13.68
2023-03-06T14:41:33.708Z,13.74
2023-03-06T14:44:09.689Z,13.70
2023-03-06T14:46:39.977Z,13.65
2023-03-06T14:49:09.730Z,13.53
2023-03-06T14:52:03.581Z,13.52
2023-03-06T14:54:37.795Z,13.55
2023-03-06T14:57:16.610Z,13.63
2023-03-06T14:59:59.101Z,13.67
2023-03-06T15:02:33.610Z,13.74
2023-03-06T15:05:23.928Z,13.79
2023-03-06T15:07:57.741Z,13.83
2023-03-06T15:10:31.025Z,13.95
2023-03-06T15:13:24.627Z,14.09
2023-03-06T15:16:05.556Z,14.07
2023-03-06T15:18:54.873Z,14.01
2023-03-06T15:21:27.466Z,14.02
2023-03-06T15:23:58.993Z,14.09
2023-03-06T15:26:37.344Z,14.14
2023-03-06T15:29:11.190Z,14.20
2023-03-06T15:31:47.547Z,14.51
2023-03-06T15:34:24.819Z,14.75
2023-03-06T15:36:58.337Z,15.23
2023-03-06T15:39:30.640Z,16.10
2023-03-06T15:42:26.048Z,16.93
2023-03-06T15:45:04.352Z,17.67
2023-03-06T15:47:34.140Z,18.28
2023-03-06T15:50:04.369Z,18.84
2023-03-06T15:52:36.396Z,19.21
2023-03-06T15:55:06.955Z,19.16
2023-03-06T15:57:36.410Z,18.75
2023-03-06T16:00:26.414Z,18.39
2023-03-06T16:02:59.784Z,17.86
2023-03-06T16:05:29.751Z,17.47
2023-03-06T16:07:59.799Z,17.12
2023-03-06T16:10:32.506Z,16.86
2023-03-06T16:13:13.470Z,16.60
2023-03-06T16:15:51.760Z,16.48
2023-03-06T16:18:21.020Z,16.47
2023-03-06T16:20:50.433Z,16.22
2023-03-06T16:23:19.747Z,15.92
2023-03-06T16:25:50.533Z,15.62
2023-03-06T16:28:19.817Z,15.31
2023-03-06T16:30:49.073Z,15.07
2023-03-06T16:33:18.215Z,14.83
2023-03-06T16:35:47.944Z,14.59
2023-03-06T16:38:17.750Z,14.36
2023-03-06T16:40:46.910Z,14.14
2023-03-06T16:43:17.879Z,13.92
2023-03-06T16:45:47.614Z,13.68
2023-03-06T16:48:20.251Z,13.48
2023-03-06T16:50:50.053Z,13.36
2023-03-06T16:53:19.896Z,13.27
2023-03-06T16:55:49.739Z,13.13
2023-03-06T16:58:20.356Z,13.00
2023-03-06T17:00:49.624Z,12.90
2023-03-06T17:03:19.749Z,12.80
2023-03-06T17:05:49.330Z,12.66
2023-03-06T17:08:18.917Z,12.57
2023-03-06T17:10:50.284Z,12.49
2023-03-06T17:13:21.268Z,12.39
2023-03-06T17:15:56.827Z,12.30
2023-03-06T17:18:30.733Z,12.21
2023-03-06T17:21:01.438Z,12.11
2023-03-06T17:23:31.986Z,12.06
2023-03-06T17:26:05.505Z,12.00
2023-03-06T17:28:36.579Z,11.92
2023-03-06T17:31:14.481Z,11.87
2023-03-06T17:33:44.948Z,11.78
2023-03-06T17:36:16.845Z,11.71
2023-03-06T17:38:50.080Z,11.65
2023-03-06T17:41:25.612Z,11.60
2023-03-06T17:43:59.881Z,11.55
2023-03-06T17:46:32.963Z,11.62
2023-03-06T17:49:03.202Z,11.72
2023-03-06T17:51:33.578Z,11.79
2023-03-06T17:54:03.186Z,11.85
2023-03-06T17:56:33.564Z,11.88
2023-03-06T17:59:06.534Z,11.87
2023-03-06T18:01:38.595Z,11.80
2023-03-06T18:04:09.589Z,11.69
2023-03-06T18:06:41.651Z,11.63
2023-03-06T18:09:14.651Z,11.55
2023-03-06T18:11:45.910Z,11.56
2023-03-06T18:14:15.707Z,11.60
2023-03-06T18:16:46.327Z,11.62
2023-03-06T18:19:22.181Z,11.60
2023-03-06T18:21:56.633Z,11.53
2023-03-06T18:24:27.881Z,11.46
2023-03-06T18:27:04.330Z,11.36
2023-03-06T18:29:37.425Z,11.34
2023-03-06T18:32:11.906Z,11.35
2023-03-06T18:34:43.317Z,11.31
2023-03-06T18:37:13.286Z,11.28
2023-03-06T18:39:49.110Z,11.24
2023-03-06T18:42:20.013Z,11.19
2023-03-06T18:44:52.165Z,11.18
2023-03-06T18:47:24.448Z,11.22
2023-03-06T18:49:54.710Z,11.21
2023-03-06T18:52:25.356Z,11.16
2023-03-06T18:54:55.303Z,11.09
2023-03-06T18:57:25.656Z,11.04
2023-03-06T18:59:57.229Z,11.01
2023-03-06T19:02:27.012Z,10.97
2023-03-06T19:04:58.065Z,10.97
2023-03-06T19:07:28.410Z,10.99
2023-03-06T19:09:58.763Z,11.02
2023-03-06T19:12:29.071Z,11.08
2023-03-06T19:15:00.089Z,11.12
2023-03-06T19:17:32.452Z,11.14
2023-03-06T19:20:03.090Z,11.12
2023-03-06T19:22:36.524Z,11.15
2023-03-06T19:25:09.959Z,11.20
2023-03-06T19:27:40.555Z,11.22
2023-03-06T19:30:12.721Z,11.24
2023-03-06T19:32:48.321Z,11.26
2023-03-06T19:35:22.207Z,11.26
2023-03-06T19:37:54.654Z,11.31
2023-03-06T19:40:25.723Z,11.37
2023-03-06T19:42:57.896Z,11.40
2023-03-06T19:45:29.321Z,11.40
2023-03-06T19:48:01.649Z,11.35
2023-03-06T19:50:32.103Z,11.27
2023-03-06T19:53:03.679Z,11.23
2023-03-06T19:55:36.210Z,11.28
2023-03-06T19:58:10.547Z,11.28
2023-03-06T20:00:43.111Z,11.22
2023-03-06T20:03:13.058Z,11.16
2023-03-06T20:05:50.284Z,11.10
2023-03-06T20:08:20.728Z,11.05
2023-03-06T20:10:51.856Z,11.03
2023-03-06T20:13:23.111Z,11.00
2023-03-06T20:15:55.319Z,10.95
2023-03-06T20:18:29.226Z,10.88
2023-03-06T20:21:08.047Z,10.77
2023-03-06T20:23:40.219Z,10.73
2023-03-06T20:26:13.207Z,10.72
2023-03-06T20:28:44.078Z,10.70
2023-03-06T20:31:22.000Z,10.68
2023-03-06T20:33:55.964Z,10.63
2023-03-06T20:36:34.467Z,10.56
2023-03-06T20:39:10.400Z,10.55
2023-03-06T20:41:42.807Z,10.54
2023-03-06T20:44:17.389Z,10.50
2023-03-06T20:46:50.050Z,10.41
2023-03-06T20:49:22.134Z,10.36
2023-03-06T20:51:52.890Z,10.35
2023-03-06T20:54:22.743Z,10.35
2023-03-06T20:56:55.522Z,10.30
2023-03-06T20:59:30.159Z,10.19
2023-03-06T21:02:00.794Z,10.06
2023-03-06T21:04:31.970Z,9.99
2023-03-06T21:07:05.699Z,9.93
2023-03-06T21:09:39.380Z,9.89
2023-03-06T21:12:13.169Z,9.79
2023-03-06T21:14:46.033Z,9.63
2023-03-06T21:17:17.642Z,9.60
2023-03-06T21:19:50.031Z,9.61
2023-03-06T21:22:20.704Z,9.59
2023-03-06T21:24:53.945Z,9.57
2023-03-06T21:27:26.262Z,9.57
2023-03-06T21:29:56.822Z,9.60
2023-03-06T21:32:27.194Z,9.63
2023-03-06T21:34:57.958Z,9.61
2023-03-06T21:37:27.871Z,9.51
2023-03-06T21:40:01.898Z,9.32
2023-03-06T21:42:31.486Z,9.17
2023-03-06T21:45:01.749Z,9.06
2023-03-06T21:47:38.583Z,9.04
2023-03-06T21:50:12.789Z,9.00
2023-03-06T21:52:43.986Z,9.01
2023-03-06T21:55:13.394Z,9.01
2023-03-06T21:57:43.184Z,9.01
2023-03-06T22:00:13.643Z,9.02
2023-03-06T22:02:43.029Z,9.03
2023-03-06T22:05:12.640Z,9.07
2023-03-06T22:07:42.959Z,9.12
2023-03-06T22:10:15.028Z,9.07
2023-03-06T22:12:47.474Z,9.05
2023-03-06T22:15:17.485Z,9.06
2023-03-06T22:17:49.175Z,9.12
2023-03-06T22:20:19.121Z,9.16
2023-03-06T22:22:50.305Z,9.11
2023-03-06T22:25:21.910Z,8.99
2023-03-06T22:27:52.954Z,8.86
2023-03-06T22:30:22.820Z,8.74
2023-03-06T22:32:56.124Z,8.61
2023-03-06T22:35:27.624Z,8.50
2023-03-06T22:37:59.178Z,8.45
2023-03-06T22:40:29.176Z,8.42
2023-03-06T22:43:00.122Z,8.43
2023-03-06T22:45:29.420Z,8.43
2023-03-06T22:48:10.333Z,8.40
2023-03-06T22:50:42.123Z,8.39
2023-03-06T22:53:12.172Z,8.46
2023-03-06T22:55:41.482Z,8.48
2023-03-06T22:58:10.890Z,8.48
2023-03-06T23:00:40.516Z,8.43
2023-03-06T23:03:10.138Z,8.43
2023-03-06T23:05:43.345Z,8.49
2023-03-06T23:08:13.108Z,8.48
2023-03-06T23:10:43.008Z,8.48
2023-03-06T23:13:12.834Z,8.46
2023-03-06T23:15:43.762Z,8.46
2023-03-06T23:18:13.618Z,8.41
2023-03-06T23:20:44.259Z,8.37
2023-03-06T23:23:14.102Z,8.32
2023-03-06T23:25:44.980Z,8.29
2023-03-06T23:28:15.203Z,8.34
2023-03-06T23:30:45.531Z,8.37
2023-03-06T23:33:15.052Z,8.35
2023-03-06T23:35:45.422Z,8.30
2023-03-06T23:38:14.374Z,8.24
2023-03-06T23:40:44.598Z,8.16
2023-03-06T23:43:14.745Z,8.10
2023-03-06T23:45:54.554Z,8.10
2023-03-06T23:48:24.682Z,8.10
2023-03-06T23:50:55.095Z,8.17
2023-03-06T23:53:25.289Z,8.23
2023-03-06T23:55:54.957Z,8.27
2023-03-06T23:58:24.118Z,8.26
